Time;durP1;ratioP1;P1;durP2;ratioP2;P2;SDS_P1;SDS_P2;PMS_P1;PMS_P2;Temp;Humidity;BMP_temperature;BMP_pressure;BME280_temperature;BME280_humidity;BME280_pressure;Samples;Min_cycle;Max_cycle;Signal;HPM_P1;HPM_P2
2023/07/24 00:02:57;;;;;;;;;;;;;;;17.36;77.07129;100419.2;;;;-68
2023/07/24 00:08:00;;;;;;;;;;;;;;;17.32;77.28809;100417.9;;;;-69
2023/07/24 00:12:57;;;;;;;;;;;;;;;17.28;77.1582;100420.3;;;;-69
2023/07/24 00:15:28;;;;;;;0.8;0.5;;;;;;;;;;;;;-68
2023/07/24 00:18:00;;;;;;;;;;;;;;;17.25;77.49121;100419.3;;;;-69
2023/07/24 00:22:57;;;;;;;;;;;;;;;17.21;77.37012;100418.1;;;;-68
2023/07/24 00:28:02;;;;;;;;;;;;;;;17.21;78.02246;100418.7;;;;-68
2023/07/24 00:32:57;;;;;;;;;;;;;;;17.15;78.06934;100406.4;;;;-68
2023/07/24 00:37:57;;;;;;;;;;;;;;;17.12;77.82813;100406.8;;;;-67
2023/07/24 00:42:57;;;;;;;;;;;;;;;17.06;77.57031;100397.4;;;;-68
2023/07/24 00:45:27;;;;;;;0.2;0.1;;;;;;;;;;;;;-67
2023/07/24 00:47:57;;;;;;;;;;;;;;;17.02;77.5293;100398.1;;;;-68
2023/07/24 00:52:57;;;;;;;;;;;;;;;16.99;77.43359;100384.3;;;;-69
2023/07/24 00:57:57;;;;;;;;;;;;;;;16.97;76.9375;100370.1;;;;-69
2023/07/24 01:02:58;;;;;;;;;;;;;;;16.96;77.41797;100364.7;;;;-69
2023/07/24 01:07:57;;;;;;;;;;;;;;;16.96;76.88965;100366.4;;;;-68
2023/07/24 01:13:02;;;;;;;;;;;;;;;16.92;77.11914;100367.1;;;;-69
2023/07/24 01:15:33;;;;;;;0.2;0;;;;;;;;;;;;;-68
2023/07/24 01:18:00;;;;;;;;;;;;;;;16.9;77.03711;100372.6;;;;-71
2023/07/24 01:23:08;;;;;;;;;;;;;;;16.91;76.90234;100373.5;;;;-69
2023/07/24 01:27:57;;;;;;;;;;;;;;;16.9;77.35059;100371;;;;-67
2023/07/24 01:32:58;;;;;;;;;;;;;;;16.9;76.99219;100365.3;;;;-68
2023/07/24 01:37:58;;;;;;;;;;;;;;;16.88;77.03223;100351.2;;;;-67
2023/07/24 01:42:59;;;;;;;;;;;;;;;16.88;77.9668;100342.7;;;;-68
2023/07/24 01:45:32;;;;;;;0.2;0.1;;;;;;;;;;;;;-67
2023/07/24 01:47:57;;;;;;;;;;;;;;;16.89;78.98828;100345.2;;;;-68
2023/07/24 01:52:57;;;;;;;;;;;;;;;16.91;78.41895;100343.2;;;;-68
2023/07/24 01:57:57;;;;;;;;;;;;;;;16.93;78.46875;100344.3;;;;-69
2023/07/24 02:02:57;;;;;;;;;;;;;;;16.93;78.72754;100345.7;;;;-68
2023/07/24 02:07:57;;;;;;;;;;;;;;;16.91;78.76758;100342.7;;;;-70
2023/07/24 02:12:57;;;;;;;;;;;;;;;16.94;78.87305;100337.9;;;;-68
2023/07/24 02:15:34;;;;;;;0.2;0.1;;;;;;;;;;;;;-68
2023/07/24 02:17:57;;;;;;;;;;;;;;;16.95;79.15918;100340;;;;-68
2023/07/24 02:22:57;;;;;;;;;;;;;;;16.96;79.32715;100336.2;;;;-68
2023/07/24 02:27:57;;;;;;;;;;;;;;;16.96;79.41699;100317.3;;;;-68
2023/07/24 02:32:57;;;;;;;;;;;;;;;16.98;79.50098;100299.1;;;;-68
2023/07/24 02:37:57;;;;;;;;;;;;;;;16.99;80.08496;100294.3;;;;-68
2023/07/24 02:42:57;;;;;;;;;;;;;;;16.95;80.71777;100310.7;;;;-69
2023/07/24 02:45:39;;;;;;;0.2;0;;;;;;;;;;;;;-68
2023/07/24 02:47:57;;;;;;;;;;;;;;;16.97;79.75586;100310.8;;;;-69
2023/07/24 02:52:57;;;;;;;;;;;;;;;16.98;79.88086;100316.6;;;;-69
2023/07/24 02:58:00;;;;;;;;;;;;;;;16.98;80.02832;100312.1;;;;-68
2023/07/24 03:02:57;;;;;;;;;;;;;;;17.01;79.61621;100300;;;;-68
2023/07/24 03:07:57;;;;;;;;;;;;;;;17.02;81.0459;100301.9;;;;-67
2023/07/24 03:12:57;;;;;;;;;;;;;;;17.05;79.60254;100299.5;;;;-69
2023/07/24 03:15:39;;;;;;;0.2;0.1;;;;;;;;;;;;;-68
2023/07/24 03:17:57;;;;;;;;;;;;;;;17.04;80.07031;100297.7;;;;-68
2023/07/24 03:22:57;;;;;;;;;;;;;;;17.04;79.66602;100282.8;;;;-68
2023/07/24 03:27:57;;;;;;;;;;;;;;;17.02;79.50684;100272.5;;;;-69
2023/07/24 03:32:57;;;;;;;;;;;;;;;17.01;79.42578;100288.3;;;;-68
2023/07/24 03:38:00;;;;;;;;;;;;;;;16.99;79.23145;100288.3;;;;-68
2023/07/24 03:42:57;;;;;;;;;;;;;;;17.01;78.71777;100288.4;;;;-68
2023/07/24 03:45:43;;;;;;;0.2;0.1;;;;;;;;;;;;;-67
2023/07/24 03:47:57;;;;;;;;;;;;;;;17.01;78.60547;100287.6;;;;-67
2023/07/24 03:52:57;;;;;;;;;;;;;;;17;78.30078;100289.3;;;;-68
2023/07/24 03:57:57;;;;;;;;;;;;;;;16.99;78.08496;100285.8;;;;-68
2023/07/24 04:02:57;;;;;;;;;;;;;;;17;78.05371;100281.5;;;;-68
2023/07/24 04:08:00;;;;;;;;;;;;;;;17.01;77.65039;100286.9;;;;-67
2023/07/24 04:12:57;;;;;;;;;;;;;;;17.02;77.77734;100293.1;;;;-68
2023/07/24 04:15:44;;;;;;;0.2;0.1;;;;;;;;;;;;;-67
2023/07/24 04:17:57;;;;;;;;;;;;;;;17.05;78.60254;100295.6;;;;-68
2023/07/24 04:22:57;;;;;;;;;;;;;;;17.06;77.7832;100289.6;;;;-67
2023/07/24 04:28:00;;;;;;;;;;;;;;;17.07;78.53809;100283.4;;;;-67
2023/07/24 04:32:57;;;;;;;;;;;;;;;17.09;78.36133;100285.8;;;;-68
2023/07/24 04:37:57;;;;;;;;;;;;;;;17.12;78.18652;100283.7;;;;-67
2023/07/24 04:42:57;;;;;;;;;;;;;;;17.14;78.9873;100282.5;;;;-67
2023/07/24 04:45:46;;;;;;;0.3;0.1;;;;;;;;;;;;;-68
2023/07/24 04:47:57;;;;;;;;;;;;;;;17.18;78.90527;100286.1;;;;-68
2023/07/24 04:52:57;;;;;;;;;;;;;;;17.22;79.37402;100284.9;;;;-68
2023/07/24 04:57:57;;;;;;;;;;;;;;;17.23;79.6123;100282;;;;-70
2023/07/24 05:02:57;;;;;;;;;;;;;;;17.25;79.59277;100285.2;;;;-67
2023/07/24 05:07:57;;;;;;;;;;;;;;;17.29;79.47559;100285;;;;-68
2023/07/24 05:12:58;;;;;;;;;;;;;;;17.31;79.29883;100288;;;;-68
2023/07/24 05:15:48;;;;;;;0.2;0.1;;;;;;;;;;;;;-72
2023/07/24 05:17:57;;;;;;;;;;;;;;;17.35;79.35254;100289.4;;;;-69
2023/07/24 05:22:57;;;;;;;;;;;;;;;17.39;79.13379;100287.3;;;;-68
2023/07/24 05:27:57;;;;;;;;;;;;;;;17.43;79.53516;100284.6;;;;-68
2023/07/24 05:32:57;;;;;;;;;;;;;;;17.49;79.58887;100284.8;;;;-69
2023/07/24 05:37:57;;;;;;;;;;;;;;;17.55;80.0625;100285.7;;;;-69
2023/07/24 05:42:57;;;;;;;;;;;;;;;17.63;80.68457;100280.4;;;;-68
2023/07/24 05:45:51;;;;;;;0.3;0.2;;;;;;;;;;;;;-68
2023/07/24 05:47:57;;;;;;;;;;;;;;;17.69;80.12109;100275.2;;;;-69
2023/07/24 05:52:57;;;;;;;;;;;;;;;17.77;80.05762;100279.7;;;;-68
2023/07/24 05:57:57;;;;;;;;;;;;;;;17.82;79.57227;100278.4;;;;-68
2023/07/24 06:02:57;;;;;;;;;;;;;;;17.87;79.93066;100282.1;;;;-68
2023/07/24 06:07:57;;;;;;;;;;;;;;;17.94;79.53516;100291.2;;;;-69
2023/07/24 06:12:57;;;;;;;;;;;;;;;18.02;81.49707;100283;;;;-68
2023/07/24 06:15:55;;;;;;;0.2;0;;;;;;;;;;;;;-68
2023/07/24 06:17:57;;;;;;;;;;;;;;;18.1;82.05371;100283.5;;;;-68
2023/07/24 06:22:57;;;;;;;;;;;;;;;18.19;82.11328;100281.2;;;;-69
2023/07/24 06:27:57;;;;;;;;;;;;;;;18.3;82.4043;100279.2;;;;-67
2023/07/24 06:32:57;;;;;;;;;;;;;;;18.39;82.81445;100282.3;;;;-67
2023/07/24 06:37:57;;;;;;;;;;;;;;;18.47;82.34766;100284.9;;;;-68
2023/07/24 06:42:57;;;;;;;;;;;;;;;18.56;82.49609;100291.8;;;;-67
2023/07/24 06:45:56;;;;;;;0.2;0.1;;;;;;;;;;;;;-69
2023/07/24 06:47:57;;;;;;;;;;;;;;;18.63;82.23926;100296.4;;;;-69
2023/07/24 06:52:57;;;;;;;;;;;;;;;18.71;82.44629;100302.8;;;;-69
2023/07/24 06:57:57;;;;;;;;;;;;;;;18.77;82.20996;100304.1;;;;-68
2023/07/24 07:02:57;;;;;;;;;;;;;;;18.81;82.1377;100306.9;;;;-68
2023/07/24 07:07:57;;;;;;;;;;;;;;;18.89;82.23145;100313.1;;;;-68
2023/07/24 07:12:57;;;;;;;;;;;;;;;18.96;81.73633;100314.5;;;;-69
2023/07/24 07:15:59;;;;;;;0.3;0.1;;;;;;;;;;;;;-69
2023/07/24 07:17:59;;;;;;;;;;;;;;;19;81.24805;100318.9;;;;-68
2023/07/24 07:22:57;;;;;;;;;;;;;;;18.99;81.66406;100314.9;;;;-69
2023/07/24 07:27:57;;;;;;;;;;;;;;;19.07;81.44043;100308.8;;;;-68
2023/07/24 07:32:57;;;;;;;;;;;;;;;19.27;80.86719;100312.5;;;;-68
2023/07/24 07:37:57;;;;;;;;;;;;;;;19.36;80.35352;100311.6;;;;-67
2023/07/24 07:42:57;;;;;;;;;;;;;;;19.38;80.23438;100311.7;;;;-68
2023/07/24 07:46:01;;;;;;;0.2;0.1;;;;;;;;;;;;;-69
2023/07/24 07:47:57;;;;;;;;;;;;;;;19.43;79.81348;100301.5;;;;-68
2023/07/24 07:52:57;;;;;;;;;;;;;;;19.57;79.66992;100294.5;;;;-68
2023/07/24 07:57:57;;;;;;;;;;;;;;;19.81;79.12598;100295.7;;;;-69
2023/07/24 08:02:57;;;;;;;;;;;;;;;20.16;77.62402;100290.3;;;;-68
2023/07/24 08:07:57;;;;;;;;;;;;;;;20.41;76.78418;100281.3;;;;-68
2023/07/24 08:12:57;;;;;;;;;;;;;;;20.61;75.0957;100273.3;;;;-69
2023/07/24 08:16:05;;;;;;;0.2;0.1;;;;;;;;;;;;;-69
2023/07/24 08:17:57;;;;;;;;;;;;;;;20.79;75.20605;100273.3;;;;-69
2023/07/24 08:22:57;;;;;;;;;;;;;;;21.15;73.77832;100273.8;;;;-70
2023/07/24 08:27:57;;;;;;;;;;;;;;;21.39;72.875;100270.8;;;;-69
2023/07/24 08:32:58;;;;;;;;;;;;;;;21.82;70.9873;100273.6;;;;-69
2023/07/24 08:37:57;;;;;;;;;;;;;;;22.05;70.06641;100279.5;;;;-68
2023/07/24 08:42:58;;;;;;;;;;;;;;;21.98;69.24707;100279.2;;;;-68
2023/07/24 08:46:07;;;;;;;0.2;0;;;;;;;;;;;;;-68
2023/07/24 08:47:57;;;;;;;;;;;;;;;22.09;69.46973;100281.3;;;;-68
2023/07/24 08:52:57;;;;;;;;;;;;;;;22.53;68.56738;100278.7;;;;-67
2023/07/24 08:57:57;;;;;;;;;;;;;;;23.26;66.5293;100282.6;;;;-68
2023/07/24 09:02:57;;;;;;;;;;;;;;;23.85;64.42871;100273.3;;;;-69
2023/07/24 09:07:57;;;;;;;;;;;;;;;23.76;63.39648;100280.7;;;;-68
2023/07/24 09:12:58;;;;;;;;;;;;;;;23.27;63.30566;100279.4;;;;-68
2023/07/24 09:16:10;;;;;;;0.2;0.1;;;;;;;;;;;;;-69
2023/07/24 09:17:57;;;;;;;;;;;;;;;23.07;65.24512;100278.6;;;;-69
2023/07/24 09:22:57;;;;;;;;;;;;;;;23.51;64.41504;100276.8;;;;-67
2023/07/24 09:28:00;;;;;;;;;;;;;;;23.65;63.38086;100274.2;;;;-69
2023/07/24 09:32:59;;;;;;;;;;;;;;;23.91;62.67285;100266.6;;;;-69
2023/07/24 09:38:05;;;;;;;;;;;;;;;24.34;61.31934;100260.1;;;;-68
2023/07/24 09:42:57;;;;;;;;;;;;;;;24.52;60.07031;100258.4;;;;-68
2023/07/24 09:46:13;;;;;;;0.2;0;;;;;;;;;;;;;-68
2023/07/24 09:48:00;;;;;;;;;;;;;;;24.68;59.59668;100246;;;;-70
2023/07/24 09:52:58;;;;;;;;;;;;;;;24.85;58.35352;100233.8;;;;-69
2023/07/24 09:57:58;;;;;;;;;;;;;;;25.34;57.86328;100234.2;;;;-68
2023/07/24 10:02:57;;;;;;;;;;;;;;;25.63;56.24023;100238;;;;-69
2023/07/24 10:07:58;;;;;;;;;;;;;;;25.94;55.08008;100239.2;;;;-72
2023/07/24 10:12:57;;;;;;;;;;;;;;;26.03;54.25977;100227;;;;-70
2023/07/24 10:16:17;;;;;;;0.2;0;;;;;;;;;;;;;-71
2023/07/24 10:18:05;;;;;;;;;;;;;;;26.13;54.35156;100230;;;;-72
2023/07/24 10:22:57;;;;;;;;;;;;;;;25.99;54.58887;100240.3;;;;-72
2023/07/24 10:27:57;;;;;;;;;;;;;;;25.73;54.47656;100244.1;;;;-72
2023/07/24 10:32:57;;;;;;;;;;;;;;;25.71;54.56641;100243.2;;;;-71
2023/07/24 10:38:02;;;;;;;;;;;;;;;25.68;54.50488;100249.1;;;;-73
2023/07/24 10:43:08;;;;;;;;;;;;;;;25.51;55.36133;100250.3;;;;-72
2023/07/24 10:46:22;;;;;;;0.2;0;;;;;;;;;;;;;-71
2023/07/24 10:47:57;;;;;;;;;;;;;;;25.35;55.74512;100249.5;;;;-72
2023/07/24 10:52:57;;;;;;;;;;;;;;;25.16;56.27344;100261;;;;-68
2023/07/24 10:57:57;;;;;;;;;;;;;;;24.97;56.86133;100264;;;;-67
2023/07/24 11:02:57;;;;;;;;;;;;;;;24.79;57.73535;100265.4;;;;-69
2023/07/24 11:07:58;;;;;;;;;;;;;;;24.63;58.0498;100264.3;;;;-69
2023/07/24 11:13:00;;;;;;;;;;;;;;;24.49;58.9043;100269.7;;;;-68
2023/07/24 11:16:26;;;;;;;0.2;0;;;;;;;;;;;;;-69
2023/07/24 11:17:58;;;;;;;;;;;;;;;24.33;60.25098;100276.1;;;;-72
2023/07/24 11:23:01;;;;;;;;;;;;;;;24.05;62.21094;100276.4;;;;-69
2023/07/24 11:27:57;;;;;;;;;;;;;;;23.9;63.0498;100281.1;;;;-68
2023/07/24 11:32:59;;;;;;;;;;;;;;;23.76;63.56836;100277.9;;;;-68
2023/07/24 11:38:00;;;;;;;;;;;;;;;23.68;63.93457;100280.7;;;;-68
2023/07/24 11:42:57;;;;;;;;;;;;;;;23.68;63.78711;100284.8;;;;-69
2023/07/24 11:46:33;;;;;;;0.2;0;;;;;;;;;;;;;-67
2023/07/24 11:47:57;;;;;;;;;;;;;;;23.62;64.15625;100291.4;;;;-69
2023/07/24 11:52:57;;;;;;;;;;;;;;;23.46;64.54492;100300.2;;;;-67
2023/07/24 11:58:04;;;;;;;;;;;;;;;23.27;64.83789;100301.7;;;;-71
2023/07/24 12:02:57;;;;;;;;;;;;;;;23.12;64.82715;100303.5;;;;-68
2023/07/24 12:07:58;;;;;;;;;;;;;;;22.97;65.33203;100308.1;;;;-68
2023/07/24 12:13:00;;;;;;;;;;;;;;;22.88;65.33105;100308.3;;;;-68
2023/07/24 12:16:37;;;;;;;0.2;0;;;;;;;;;;;;;-68
2023/07/24 12:18:00;;;;;;;;;;;;;;;22.9;64.69336;100316.8;;;;-68
2023/07/24 12:22:57;;;;;;;;;;;;;;;23.04;64.65625;100314.7;;;;-69
2023/07/24 12:27:57;;;;;;;;;;;;;;;23.04;63.83301;100316.6;;;;-68
2023/07/24 12:33:00;;;;;;;;;;;;;;;22.9;64.36035;100319.3;;;;-67
2023/07/24 12:37:57;;;;;;;;;;;;;;;22.73;64.80566;100319.3;;;;-69
2023/07/24 12:42:57;;;;;;;;;;;;;;;22.61;65.33691;100315.9;;;;-68
2023/07/24 12:46:38;;;;;;;0.2;0.1;;;;;;;;;;;;;-68
2023/07/24 12:47:59;;;;;;;;;;;;;;;22.57;65.15918;100319.1;;;;-68
2023/07/24 12:52:57;;;;;;;;;;;;;;;22.71;64.45996;100324.4;;;;-68
2023/07/24 12:57:57;;;;;;;;;;;;;;;22.87;64.15137;100323.3;;;;-68
2023/07/24 13:02:57;;;;;;;;;;;;;;;23;63.86035;100325.7;;;;-67
2023/07/24 13:07:57;;;;;;;;;;;;;;;23.05;63.45508;100326.8;;;;-69
2023/07/24 13:12:57;;;;;;;;;;;;;;;23.18;63.26855;100322.3;;;;-69
2023/07/24 13:16:45;;;;;;;0.2;0;;;;;;;;;;;;;-68
2023/07/24 13:17:57;;;;;;;;;;;;;;;23.33;62.35156;100318.6;;;;-69
2023/07/24 13:22:57;;;;;;;;;;;;;;;23.35;61.91992;100325;;;;-68
2023/07/24 13:27:57;;;;;;;;;;;;;;;23.29;62.08105;100317.9;;;;-68
2023/07/24 13:32:57;;;;;;;;;;;;;;;23.17;61.92773;100341.2;;;;-67
2023/07/24 13:37:57;;;;;;;;;;;;;;;22.99;62.24609;100336.1;;;;-69
2023/07/24 13:42:57;;;;;;;;;;;;;;;23.13;61.46387;100349.9;;;;-67
2023/07/24 13:46:45;;;;;;;0.2;0;;;;;;;;;;;;;-69
2023/07/24 13:47:57;;;;;;;;;;;;;;;23.28;61.22266;100362.6;;;;-70
2023/07/24 13:53:00;;;;;;;;;;;;;;;23.53;60.47656;100366;;;;-68
2023/07/24 13:57:57;;;;;;;;;;;;;;;23.74;60.49219;100355.1;;;;-69
2023/07/24 14:02:57;;;;;;;;;;;;;;;23.88;60.33984;100361.4;;;;-68
2023/07/24 14:07:57;;;;;;;;;;;;;;;23.87;59.48926;100360.6;;;;-67
2023/07/24 14:13:00;;;;;;;;;;;;;;;23.79;59.375;100372;;;;-68
2023/07/24 14:16:49;;;;;;;0.2;0.1;;;;;;;;;;;;;-67
2023/07/24 14:17:57;;;;;;;;;;;;;;;23.66;59.02539;100380.7;;;;-68
2023/07/24 14:22:57;;;;;;;;;;;;;;;23.49;58.84375;100390.9;;;;-66
2023/07/24 14:27:57;;;;;;;;;;;;;;;23.32;58.88867;100401.3;;;;-68
2023/07/24 14:32:57;;;;;;;;;;;;;;;23.43;59.01953;100405.3;;;;-68
2023/07/24 14:37:57;;;;;;;;;;;;;;;23.59;58.75195;100418.6;;;;-68
2023/07/24 14:43:00;;;;;;;;;;;;;;;23.43;58.05566;100429.2;;;;-67
2023/07/24 14:46:53;;;;;;;0.2;0;;;;;;;;;;;;;-67
2023/07/24 14:47:57;;;;;;;;;;;;;;;23.12;58.00391;100431.2;;;;-67
2023/07/24 14:52:57;;;;;;;;;;;;;;;22.89;58.76465;100438.7;;;;-67
2023/07/24 14:57:57;;;;;;;;;;;;;;;22.6;58.89844;100437.8;;;;-67
2023/07/24 15:02:57;;;;;;;;;;;;;;;22.41;59.37695;100441.8;;;;-66
2023/07/24 15:07:57;;;;;;;;;;;;;;;22.28;59.72559;100448.3;;;;-67
2023/07/24 15:12:57;;;;;;;;;;;;;;;22.28;59.90723;100448.1;;;;-68
2023/07/24 15:16:57;;;;;;;0.2;0;;;;;;;;;;;;;-68
2023/07/24 15:17:57;;;;;;;;;;;;;;;22.19;60.02246;100456.9;;;;-67
2023/07/24 15:22:57;;;;;;;;;;;;;;;22.02;60.44434;100454;;;;-67
2023/07/24 15:27:57;;;;;;;;;;;;;;;21.85;60.61523;100457.2;;;;-68
2023/07/24 15:32:57;;;;;;;;;;;;;;;21.81;60.78027;100453.8;;;;-66
2023/07/24 15:37:57;;;;;;;;;;;;;;;21.71;60.5625;100464.8;;;;-66
2023/07/24 15:42:57;;;;;;;;;;;;;;;21.65;60.29102;100477.6;;;;-67
2023/07/24 15:47:01;;;;;;;0.2;0;;;;;;;;;;;;;-67
2023/07/24 15:47:57;;;;;;;;;;;;;;;21.59;60.20313;100475.7;;;;-67
2023/07/24 15:52:57;;;;;;;;;;;;;;;21.52;59.98926;100478.7;;;;-67
2023/07/24 15:57:57;;;;;;;;;;;;;;;21.51;59.74805;100484.5;;;;-67
2023/07/24 16:02:57;;;;;;;;;;;;;;;21.55;59.85645;100484.3;;;;-69
2023/07/24 16:07:57;;;;;;;;;;;;;;;21.63;59.48926;100490.8;;;;-66
2023/07/24 16:12:57;;;;;;;;;;;;;;;21.73;59.42285;100494.6;;;;-68
2023/07/24 16:17:04;;;;;;;0.2;0;;;;;;;;;;;;;-69
2023/07/24 16:17:57;;;;;;;;;;;;;;;21.97;59.24902;100496.9;;;;-67
2023/07/24 16:22:57;;;;;;;;;;;;;;;22.09;59.01465;100507.7;;;;-69
2023/07/24 16:27:57;;;;;;;;;;;;;;;22.05;58.91699;100505.7;;;;-67
2023/07/24 16:32:58;;;;;;;;;;;;;;;21.9;58.55469;100512.7;;;;-67
2023/07/24 16:37:57;;;;;;;;;;;;;;;21.84;59.14063;100517.4;;;;-68
2023/07/24 16:42:58;;;;;;;;;;;;;;;21.77;58.9707;100531.8;;;;-69
2023/07/24 16:47:08;;;;;;;0.2;0;;;;;;;;;;;;;-69
2023/07/24 16:47:58;;;;;;;;;;;;;;;21.57;58.46484;100542;;;;-68
2023/07/24 16:52:57;;;;;;;;;;;;;;;21.24;59.58691;100543.3;;;;-68
2023/07/24 16:58:00;;;;;;;;;;;;;;;21.05;59.73145;100551.1;;;;-68
2023/07/24 17:02:59;;;;;;;;;;;;;;;20.89;60.28125;100546.2;;;;-68
2023/07/24 17:07:57;;;;;;;;;;;;;;;20.85;60.44531;100550.2;;;;-68
2023/07/24 17:12:57;;;;;;;;;;;;;;;20.77;60.48047;100561.8;;;;-68
2023/07/24 17:17:11;;;;;;;0.2;0;;;;;;;;;;;;;-69
2023/07/24 17:17:57;;;;;;;;;;;;;;;20.65;60.4541;100567.6;;;;-68
2023/07/24 17:22:57;;;;;;;;;;;;;;;20.48;60.72559;100578.6;;;;-68
2023/07/24 17:27:57;;;;;;;;;;;;;;;20.44;60.27637;100585.4;;;;-66
2023/07/24 17:32:57;;;;;;;;;;;;;;;20.33;60.33984;100589;;;;-73
2023/07/24 17:38:00;;;;;;;;;;;;;;;20.28;60.24316;100595.2;;;;-72
2023/07/24 17:42:57;;;;;;;;;;;;;;;20.25;60.37598;100602.9;;;;-70
2023/07/24 17:47:14;;;;;;;0.2;0;;;;;;;;;;;;;-70
2023/07/24 17:47:57;;;;;;;;;;;;;;;20.17;60.37695;100606.3;;;;-71
2023/07/24 17:52:57;;;;;;;;;;;;;;;20.05;60.55273;100609;;;;-71
2023/07/24 17:57:57;;;;;;;;;;;;;;;20.01;60.43359;100616.4;;;;-70
2023/07/24 18:02:57;;;;;;;;;;;;;;;19.95;60.41406;100616.8;;;;-71
2023/07/24 18:07:57;;;;;;;;;;;;;;;19.88;60.29199;100614.9;;;;-70
2023/07/24 18:12:57;;;;;;;;;;;;;;;19.81;60.30664;100610.7;;;;-71
2023/07/24 18:17:18;;;;;;;0.2;0.1;;;;;;;;;;;;;-73
2023/07/24 18:17:57;;;;;;;;;;;;;;;19.79;60.24512;100609;;;;-70
2023/07/24 18:22:59;;;;;;;;;;;;;;;19.72;60.18066;100613.1;;;;-71
2023/07/24 18:27:57;;;;;;;;;;;;;;;19.74;60.11328;100617.5;;;;-71
2023/07/24 18:32:57;;;;;;;;;;;;;;;19.7;59.82422;100625;;;;-70
2023/07/24 18:37:57;;;;;;;;;;;;;;;19.68;60.00293;100628.7;;;;-71
2023/07/24 18:42:57;;;;;;;;;;;;;;;19.58;59.87695;100631.7;;;;-71
2023/07/24 18:47:20;;;;;;;0.2;0;;;;;;;;;;;;;-71
2023/07/24 18:48:01;;;;;;;;;;;;;;;19.51;59.73047;100643.1;;;;-72
2023/07/24 18:52:57;;;;;;;;;;;;;;;19.39;59.77148;100648.5;;;;-71
2023/07/24 18:57:57;;;;;;;;;;;;;;;19.26;59.73047;100656.1;;;;-71
2023/07/24 19:02:57;;;;;;;;;;;;;;;19.12;59.81543;100665.2;;;;-70
2023/07/24 19:07:57;;;;;;;;;;;;;;;18.99;59.8877;100670.1;;;;-71
2023/07/24 19:12:57;;;;;;;;;;;;;;;18.86;59.76855;100670;;;;-72
2023/07/24 19:17:23;;;;;;;0.2;0;;;;;;;;;;;;;-70
2023/07/24 19:17:57;;;;;;;;;;;;;;;18.7;59.50781;100676;;;;-72
2023/07/24 19:22:57;;;;;;;;;;;;;;;18.54;59.86133;100686.8;;;;-70
2023/07/24 19:27:57;;;;;;;;;;;;;;;18.37;59.88379;100690.5;;;;-67
2023/07/24 19:32:57;;;;;;;;;;;;;;;18.2;59.83887;100695.6;;;;-69
2023/07/24 19:37:57;;;;;;;;;;;;;;;18.04;60.41602;100699.6;;;;-69
2023/07/24 19:42:59;;;;;;;;;;;;;;;17.86;60.31348;100703.4;;;;-67
2023/07/24 19:47:26;;;;;;;0.3;0.1;;;;;;;;;;;;;-69
2023/07/24 19:47:57;;;;;;;;;;;;;;;17.7;60.68652;100714.8;;;;-68
2023/07/24 19:52:57;;;;;;;;;;;;;;;17.52;61.10449;100717.5;;;;-67
2023/07/24 19:57:57;;;;;;;;;;;;;;;17.39;61.20801;100725.9;;;;-69
2023/07/24 20:02:57;;;;;;;;;;;;;;;17.24;61.35938;100731.7;;;;-69
2023/07/24 20:08:00;;;;;;;;;;;;;;;17.14;61.77441;100738.4;;;;-67
2023/07/24 20:12:57;;;;;;;;;;;;;;;17.03;61.50977;100736.9;;;;-68
2023/07/24 20:17:28;;;;;;;0.2;0.1;;;;;;;;;;;;;-69
2023/07/24 20:17:57;;;;;;;;;;;;;;;16.88;61.53613;100736.1;;;;-69
2023/07/24 20:22:57;;;;;;;;;;;;;;;16.74;61.71777;100740.5;;;;-68
2023/07/24 20:27:57;;;;;;;;;;;;;;;16.62;61.95996;100743.2;;;;-67
2023/07/24 20:32:57;;;;;;;;;;;;;;;16.48;62.11035;100747.2;;;;-68
2023/07/24 20:37:57;;;;;;;;;;;;;;;16.34;62.21484;100747.2;;;;-68
2023/07/24 20:42:57;;;;;;;;;;;;;;;16.23;62.4248;100752.8;;;;-69
2023/07/24 20:47:31;;;;;;;0.2;0;;;;;;;;;;;;;-68
2023/07/24 20:47:57;;;;;;;;;;;;;;;16.12;62.53418;100761.9;;;;-67
2023/07/24 20:52:57;;;;;;;;;;;;;;;16.05;62.63477;100765.1;;;;-69
2023/07/24 20:57:57;;;;;;;;;;;;;;;16.01;62.56348;100770.1;;;;-69
2023/07/24 21:02:57;;;;;;;;;;;;;;;15.95;62.55566;100775.3;;;;-67
2023/07/24 21:07:58;;;;;;;;;;;;;;;15.96;62.66797;100774.7;;;;-70
2023/07/24 21:12:57;;;;;;;;;;;;;;;15.93;62.70898;100772.9;;;;-71
2023/07/24 21:17:33;;;;;;;0.2;0.1;;;;;;;;;;;;;-70
2023/07/24 21:18:00;;;;;;;;;;;;;;;15.89;62.87207;100773;;;;-72
2023/07/24 21:22:57;;;;;;;;;;;;;;;15.86;62.98047;100769.9;;;;-71
2023/07/24 21:27:57;;;;;;;;;;;;;;;15.79;63.07324;100770.1;;;;-71
2023/07/24 21:32:57;;;;;;;;;;;;;;;15.7;62.90234;100769.8;;;;-68
2023/07/24 21:37:57;;;;;;;;;;;;;;;15.63;63.14063;100774.5;;;;-71
2023/07/24 21:42:57;;;;;;;;;;;;;;;15.5;63.19824;100778.9;;;;-69
2023/07/24 21:47:36;;;;;;;0.2;0;;;;;;;;;;;;;-69
2023/07/24 21:47:59;;;;;;;;;;;;;;;15.41;63.52441;100776.5;;;;-68
2023/07/24 21:52:57;;;;;;;;;;;;;;;15.28;63.33691;100777.4;;;;-68
2023/07/24 21:57:58;;;;;;;;;;;;;;;15.23;63.70117;100777;;;;-68
2023/07/24 22:02:57;;;;;;;;;;;;;;;15.16;63.53223;100777;;;;-67
2023/07/24 22:07:57;;;;;;;;;;;;;;;15.1;63.53613;100790.8;;;;-68
2023/07/24 22:12:57;;;;;;;;;;;;;;;15.07;63.87891;100791.4;;;;-67
2023/07/24 22:17:38;;;;;;;0.2;0.1;;;;;;;;;;;;;-68
2023/07/24 22:17:57;;;;;;;;;;;;;;;15.07;63.70996;100785.7;;;;-68
2023/07/24 22:22:57;;;;;;;;;;;;;;;15.05;63.73145;100788.9;;;;-68
2023/07/24 22:27:57;;;;;;;;;;;;;;;15.09;63.50098;100790.1;;;;-67
2023/07/24 22:32:57;;;;;;;;;;;;;;;15.07;63.76758;100791.1;;;;-67
2023/07/24 22:37:57;;;;;;;;;;;;;;;15.03;63.94141;100784.9;;;;-67
2023/07/24 22:42:57;;;;;;;;;;;;;;;15.03;64.06348;100787.2;;;;-67
2023/07/24 22:47:40;;;;;;;0.2;0;;;;;;;;;;;;;-67
2023/07/24 22:48:00;;;;;;;;;;;;;;;15;63.74512;100788.2;;;;-68
2023/07/24 22:52:57;;;;;;;;;;;;;;;14.89;63.82031;100790.1;;;;-67
2023/07/24 22:57:57;;;;;;;;;;;;;;;14.86;64.16406;100788.5;;;;-68
2023/07/24 23:02:57;;;;;;;;;;;;;;;14.76;64.26172;100787.9;;;;-68
2023/07/24 23:07:57;;;;;;;;;;;;;;;14.67;64.23633;100797.3;;;;-68
2023/07/24 23:12:57;;;;;;;;;;;;;;;14.57;64.37891;100792.5;;;;-67
2023/07/24 23:17:43;;;;;;;0.2;0;;;;;;;;;;;;;-68
2023/07/24 23:17:57;;;;;;;;;;;;;;;14.46;64.52148;100787.4;;;;-68
2023/07/24 23:22:59;;;;;;;;;;;;;;;14.39;64.60059;100785;;;;-69
2023/07/24 23:27:57;;;;;;;;;;;;;;;14.34;64.52539;100779.6;;;;-68
2023/07/24 23:32:57;;;;;;;;;;;;;;;14.27;64.44727;100780.5;;;;-68
2023/07/24 23:37:57;;;;;;;;;;;;;;;14.23;64.79883;100784;;;;-68
2023/07/24 23:42:57;;;;;;;;;;;;;;;14.15;64.76563;100781.3;;;;-67
2023/07/24 23:47:44;;;;;;;0.2;0;;;;;;;;;;;;;-67
2023/07/24 23:47:57;;;;;;;;;;;;;;;14.06;64.73047;100782.6;;;;-70
2023/07/24 23:52:57;;;;;;;;;;;;;;;14.05;64.51758;100775.5;;;;-67
2023/07/24 23:57:57;;;;;;;;;;;;;;;13.93;64.7334;100772.1;;;;-69
